Flight Track Log - Related Links

Times and Time Zones

All times are in EDT time to prevent confusion due to time zone crossing. See the VP-BLX flight status page for this flight to view local times or setup timezone preferences in your user account.

Time Position Orientation Groundspeed Altitude Reporting Facility
EDT Latitude Longitude Course Direction KTS MPH feet Rate Location/Type
Wed 10:32:01 AM 18.8667 -68.3500 48° Northeast 280 322 10,200  Level San Juan Center
Wed 10:33:01 AM 18.9500 -68.3500 360° North 340 391 11,100 1,300 Climbing San Juan Center
Wed 10:34:01 AM 19.0500 -68.4167 328° Northwest 400 460 12,800 1,900 Climbing San Juan Center
Wed 10:35:01 AM 19.1500 -68.4667 335° Northwest 400 460 14,900 1,983 Climbing San Juan Center
Wed 10:36:02 AM 19.2500 -68.5333 328° Northwest 410 472 16,800 1,785 Climbing San Juan Center
Wed 10:37:02 AM 19.3500 -68.5500 351° North 430 495 18,500 1,700 Climbing San Juan Center
Wed 10:38:00 AM 19.8045 -68.0379 48° Northeast  Level FlightAware Approximate
Wed 10:38:02 AM 19.4500 -68.4833 32° Northeast 430 495 20,200  Level San Juan Center
Wed 10:40:03 AM 19.6167 -68.3167 43° Northeast 410 472 23,400 1,425 Climbing San Juan Center
Wed 10:41:03 AM 19.7167 -68.2333 38° Northeast 420 483 24,500 1,091 Climbing San Juan Center
Wed 10:42:04 AM 19.8000 -68.1500 43° Northeast 430 495 25,600 1,140 Climbing San Juan Center
Wed 10:43:04 AM 19.9000 -68.0667 38° Northeast 440 506 26,800 1,150 Climbing San Juan Center
Wed 10:44:04 AM 20.0000 -67.9667 43° Northeast 460 529 27,900 1,041 Climbing San Juan Center
Wed 10:45:05 AM 20.0833 -67.8833 43° Northeast 460 529 28,900 942 Climbing San Juan Center
Wed 10:46:05 AM 20.1833 -67.7833 43° Northeast 470 541 29,800 850 Climbing San Juan Center
Wed 10:47:05 AM 20.3000 -67.7000 34° Northeast 480 552 30,600 992 Climbing San Juan Center
Wed 10:48:06 AM 20.4000 -67.6000 43° Northeast 470 541 31,800 846 Climbing San Juan Center
Wed 10:51:06 AM 20.6833 -67.3167 43° Northeast 470 541 34,000 548 Climbing San Juan Center
Wed 10:52:07 AM 20.7833 -67.2167 43° Northeast 470 541 34,000  Level San Juan Center
Wed 10:53:07 AM 20.8833 -67.1333 38° Northeast 470 541 34,000  Level San Juan Center
Wed 10:54:07 AM 20.9833 -67.0333 43° Northeast 460 529 34,000  Level San Juan Center
Wed 10:55:08 AM 21.0667 -66.9333 48° Northeast 470 541 34,000  Level San Juan Center
Wed 10:59:09 AM 21.4667 -66.5667 42° Northeast 470 541 34,000  Level San Juan Center
Wed 11:00:09 AM 21.5667 -66.4667 43° Northeast 470 541 34,000  Level San Juan Center
Wed 11:01:15 AM 21.6667 -66.3667 43° Northeast 470 541 34,000  Level San Juan Center
Wed 11:05:13 AM 22.0333 -66.0500 North 473 544 34,000  Level New York Oceanic (ODAPS)
Wed 11:59:18 AM 29.2311 -65.4319 North 464 534 34,000  Level New York Center
Wed 12:00:17 PM 29.3658 -65.4242 North 477 549 34,000  Level New York Center
Wed 12:01:18 PM 29.4897 -65.4025 North 495 570 34,000  Level New York Center
Wed 12:02:18 PM 29.6378 -65.3678 12° North 500 575 34,000  Level New York Center
Wed 12:04:17 PM 29.8869 -65.2717 18° North 502 578 34,000  Level New York Center
Wed 12:05:18 PM 30.0269 -65.1939 26° Northeast 502 578 34,000  Level New York Center
Wed 12:07:17 PM 30.2831 -65.0678 23° Northeast 502 578 34,000  Level New York Center
Wed 12:08:18 PM 30.4111 -65.0069 22° Northeast 502 578 34,000  Level New York Center
Wed 12:10:18 PM 30.6683 -64.8650 25° Northeast 513 590 34,000  Level New York Center
Wed 12:11:18 PM 30.7961 -64.7964 25° Northeast 507 583 34,000  Level New York Center
Wed 12:12:18 PM 30.9094 -64.7331 26° Northeast 508 585 34,000  Level New York Center
Wed 12:13:17 PM 31.0514 -64.6606 24° Northeast 508 585 34,000  Level New York Center
Wed 12:17:18 PM 31.5678 -64.3814 25° Northeast 503 579 34,000  Level New York Center
Wed 12:19:18 PM 31.8244 -64.2403 25° Northeast 509 586 34,000  Level New York Center
Wed 12:20:18 PM 31.9397 -64.1756 25° Northeast 509 586 34,000  Level New York Center
Wed 12:21:18 PM 32.0833 -64.0986 24° Northeast 504 580 34,000  Level New York Center
Wed 12:23:00 PM 32.2757 -63.9347 36° Northeast  Level Estimated
Wed 12:23:18 PM 32.3278 -63.9642 36° Northeast 511 588 34,000  Level New York Center
Wed 12:24:18 PM 32.4711 -63.8839 25° Northeast 511 588 34,600 500 Climbing New York Center
Wed 12:25:18 PM 32.6006 -63.8167 24° Northeast 506 582 35,000 200 Climbing New York Center
Wed 12:26:18 PM 32.7114 -63.7508 27° Northeast 506 582 35,000  Level New York Center
Wed 12:27:18 PM 32.8506 -63.6728 25° Northeast 505 581 35,000  Level New York Center
Wed 12:28:18 PM 32.9672 -63.6061 26° Northeast 505 581 35,000  Level New York Center
Wed 12:29:18 PM 33.1086 -63.5297 24° Northeast 505 581 35,000  Level New York Center
Wed 12:30:18 PM 33.2336 -63.4592 25° Northeast 510 587 35,000  Level New York Center
Wed 12:31:18 PM 33.3483 -63.3919 26° Northeast 504 580 35,000  Level New York Center
Wed 12:32:17 PM 33.4875 -63.3175 24° Northeast 504 580 35,000  Level New York Center
Wed 12:33:18 PM 33.6164 -63.2461 25° Northeast 504 580 35,000  Level New York Center
Wed 12:35:18 PM 33.8656 -63.0983 26° Northeast 499 574 35,000  Level New York Center
Wed 12:38:18 PM 34.2536 -62.8811 26° Northeast 505 581 35,000  Level New York Center
Wed 12:39:18 PM 34.3778 -62.8039 27° Northeast 505 581 35,000  Level New York Center
Wed 12:40:18 PM 34.4942 -62.7344 26° Northeast 511 588 35,000  Level New York Center
Wed 12:42:18 PM 34.7536 -62.5922 24° Northeast 506 582 35,000  Level New York Center
Wed 12:44:00 PM 34.9647 -62.4594 27° Northeast  Level FlightAware Approximate
Wed 12:51:00 PM 35.8372 -61.9214 26° Northeast  Level FlightAware Approximate
Wed 12:52:00 PM 35.9627 -61.8462 26° Northeast  Level FlightAware Approximate
Wed 12:53:00 PM 36.0882 -61.7709 26° Northeast  Level FlightAware Approximate
Wed 12:54:00 PM 36.2136 -61.6952 26° Northeast  Level FlightAware Approximate
Wed 12:55:00 PM 36.3390 -61.6194 26° Northeast  Level FlightAware Approximate
Wed 12:56:00 PM 36.4643 -61.5433 26° Northeast  Level FlightAware Approximate
Wed 12:57:00 PM 36.5896 -61.4669 26° Northeast  Level FlightAware Approximate
Wed 12:58:00 PM 36.7148 -61.3903 26° Northeast  Level FlightAware Approximate
Wed 12:59:00 PM 36.8400 -61.3135 26° Northeast  Level FlightAware Approximate
Wed 01:00:00 PM 36.9651 -61.2364 26° Northeast  Level FlightAware Approximate
Wed 01:01:00 PM 37.0902 -61.1590 26° Northeast  Level FlightAware Approximate
Wed 01:02:00 PM 37.2152 -61.0814 26° Northeast  Level FlightAware Approximate
Wed 01:03:00 PM 37.3402 -61.0035 26° Northeast  Level FlightAware Approximate
Wed 01:04:00 PM 37.4651 -60.9254 26° Northeast  Level FlightAware Approximate
Wed 01:05:00 PM 37.5900 -60.8470 26° Northeast  Level FlightAware Approximate
Wed 01:06:00 PM 37.7149 -60.7683 26° Northeast  Level FlightAware Approximate
Wed 01:07:00 PM 37.8396 -60.6894 27° Northeast  Level FlightAware Approximate
Wed 01:08:00 PM 37.9644 -60.6102 27° Northeast  Level FlightAware Approximate
Wed 01:09:00 PM 38.0890 -60.5308 27° Northeast  Level FlightAware Approximate
Wed 01:10:00 PM 38.2136 -60.4510 27° Northeast  Level FlightAware Approximate
Wed 01:11:00 PM 38.3382 -60.3711 27° Northeast  Level FlightAware Approximate
Wed 01:12:00 PM 38.4627 -60.2908 27° Northeast  Level FlightAware Approximate
Wed 01:13:00 PM 38.5911 -60.2216 21° North  Level FlightAware Approximate
Wed 01:14:00 PM 38.7204 -60.1574 21° North  Level FlightAware Approximate
Wed 01:15:00 PM 38.8496 -60.0929 21° North  Level FlightAware Approximate
Wed 01:16:00 PM 38.9788 -60.0283 21° North  Level FlightAware Approximate
Wed 01:17:00 PM 39.1080 -59.9634 21° North  Level FlightAware Approximate
Wed 01:18:00 PM 39.2371 -59.8982 21° North  Level FlightAware Approximate
Wed 01:19:00 PM 39.3662 -59.8328 21° North  Level FlightAware Approximate
Wed 01:20:00 PM 39.4953 -59.7672 21° North  Level FlightAware Approximate
Wed 01:21:00 PM 39.6243 -59.7014 21° North  Level FlightAware Approximate
Wed 01:22:00 PM 39.7533 -59.6352 22° Northeast  Level FlightAware Approximate
Wed 01:23:00 PM 39.8823 -59.5689 22° Northeast  Level FlightAware Approximate
Wed 01:24:00 PM 40.0112 -59.5024 21° North  Level FlightAware Approximate
Wed 01:25:00 PM 40.1403 -59.4362 21° North  Level FlightAware Approximate
Wed 01:26:00 PM 40.2693 -59.3698 21° North  Level FlightAware Approximate
Wed 01:44:20 PM 43.0333 -57.8500 34° Northeast 540 621 35,000  Level Gander Center
Wed 01:45:17 PM 43.1500 -57.7333 36° Northeast 550 633 35,000  Level Moncton Center
Wed 01:46:17 PM 43.3000 -57.6167 30° Northeast 550 633 35,000  Level Moncton Center
Wed 01:47:17 PM 43.4167 -57.5167 32° Northeast 550 633 35,000  Level Moncton Center
Wed 01:48:17 PM 43.5500 -57.3833 36° Northeast 560 644 35,000 262 Level Moncton Center
Wed 01:49:00 PM 43.1570 -57.7842 34° Northeast  Level FlightAware Approximate
Wed 01:50:20 PM 43.8000 -57.1333 36° Northeast 550 633 35,800  Level Gander Center
Wed 01:51:20 PM 43.9500 -57.0333 26° Northeast 550 633 36,400 615 Climbing Gander Center
Wed 01:52:17 PM 44.0500 -56.9000 44° Northeast 550 633 37,000 200 Climbing Moncton Center
Wed 01:54:20 PM 44.3333 -56.7167 25° Northeast 530 610 37,000  Level Gander Center
Wed 01:55:20 PM 44.4667 -56.6167 28° Northeast 540 621 37,000  Level Gander Center
Wed 01:56:17 PM 44.5833 -56.5333 27° Northeast 540 621 37,000  Level Moncton Center
Wed 01:57:17 PM 44.7000 -56.3833 42° Northeast 540 621 37,000  Level Moncton Center
Wed 01:58:17 PM 44.8333 -56.2833 28° Northeast 540 621 37,000  Level Moncton Center
Wed 02:00:46 PM 45.1500 -56.0167 31° Northeast 550 633 37,000  Level Gander Center
Wed 02:02:17 PM 45.3500 -55.8167 35° Northeast 550 633 37,000  Level Moncton Center
Wed 02:03:20 PM 45.4833 -55.6833 35° Northeast 550 633 37,000  Level Gander Center
Wed 02:05:17 PM 45.7167 -55.4667 33° Northeast 550 633 37,000  Level Moncton Center
Wed 02:06:17 PM 45.8500 -55.3500 31° Northeast 550 633 37,000  Level Moncton Center
Wed 02:07:20 PM 46.0000 -55.2333 28° Northeast 550 633 37,000  Level Gander Center
Wed 02:08:20 PM 46.1167 -55.1167 35° Northeast 550 633 37,000  Level Gander Center
Wed 02:09:17 PM 46.2333 -55.0000 35° Northeast 540 621 37,000  Level Moncton Center
Wed 02:10:17 PM 46.3667 -54.8833 31° Northeast 540 621 37,000  Level Moncton Center
Wed 02:11:17 PM 46.5000 -54.7500 35° Northeast 540 621 37,000  Level Moncton Center
Wed 02:13:17 PM 46.7333 -54.5167 34° Northeast 550 633 37,000  Level Moncton Center
Wed 02:14:20 PM 46.8667 -54.3833 34° Northeast 550 633 37,000  Level Gander Center
Wed 02:16:20 PM 47.1333 -54.1333 33° Northeast 550 633 37,000  Level Gander Center
Wed 02:17:20 PM 47.2500 -54.0000 38° Northeast 550 633 37,000  Level Gander Center
Wed 02:19:17 PM 47.5000 -53.7500 34° Northeast 550 633 37,000  Level Moncton Center
Wed 02:20:17 PM 47.6333 -53.6167 34° Northeast 550 633 37,000  Level Moncton Center
Wed 02:21:17 PM 47.7500 -53.5000 34° Northeast 550 633 37,000  Level Moncton Center
Wed 02:22:17 PM 47.8667 -53.3667 37° Northeast 550 633 37,000  Level Moncton Center
Wed 02:23:17 PM 48.0000 -53.2333 34° Northeast 540 621 37,000  Level Moncton Center
Wed 02:24:17 PM 48.1333 -53.1167 30° Northeast 540 621 37,000  Level Moncton Center
Wed 02:25:17 PM 48.2500 -52.9833 37° Northeast 550 633 37,000  Level Moncton Center
Wed 02:26:17 PM 48.3833 -52.8500 34° Northeast 550 633 37,000  Level Moncton Center
Wed 02:27:20 PM 48.5000 -52.7167 37° Northeast 550 633 37,000  Level Gander Center
Wed 02:28:20 PM 48.6333 -52.6000 30° Northeast 550 633 37,000  Level Gander Center
Wed 02:29:20 PM 48.7500 -52.4667 37° Northeast 550 633 37,000  Level Gander Center
Wed 02:30:46 PM 48.9500 -52.2667 33° Northeast 550 633 37,000  Level Gander Center
Wed 02:31:20 PM 49.0000 -52.2000 41° Northeast 550 633 37,000  Level Gander Center
Wed 02:32:20 PM 49.1500 -52.0500 33° Northeast 560 644 37,000  Level Gander Center
Wed 02:33:20 PM 49.2667 -51.9167 37° Northeast 560 644 37,000  Level Gander Center
Wed 02:34:20 PM 49.3833 -51.7833 37° Northeast 560 644 37,000  Level Gander Center
Wed 02:36:17 PM 49.6333 -51.5167 35° Northeast 560 644 37,000  Level Moncton Center
Wed 02:37:17 PM 49.7500 -51.3500 43° Northeast 560 644 37,000  Level Moncton Center
Wed 02:38:20 PM 49.9000 -51.2167 30° Northeast 560 644 37,000  Level Gander Center
Wed 02:39:20 PM 50.0167 -51.0667 40° Northeast 560 644 37,000  Level Gander Center
Wed 02:40:20 PM 50.1333 -50.9333 36° Northeast 570 656 37,000  Level Gander Center
Wed 02:41:17 PM 50.2667 -50.7833 36° Northeast 560 644 37,000  Level Moncton Center
Wed 02:42:17 PM 50.3833 -50.6500 36° Northeast 560 644 37,000  Level Moncton Center
Wed 02:43:20 PM 50.5167 -50.5000 36° Northeast 570 656 37,000  Level Gander Center
Wed 02:44:17 PM 50.6333 -50.3500 39° Northeast 570 656 37,000  Level Moncton Center
Wed 02:45:17 PM 50.7667 -50.1833 38° Northeast 560 644 37,000  Level Moncton Center
Wed 02:46:17 PM 50.8833 -50.0333 39° Northeast 570 656 37,000  Level Moncton Center
Wed 02:47:17 PM 51.0000 -49.8667 42° Northeast 570 656 37,000  Level Moncton Center
Wed 02:48:17 PM 51.1000 -49.6667 51° Northeast 590 679 37,000  Level Moncton Center
Wed 02:49:20 PM 51.2167 -49.4500 49° Northeast 590 679 37,000  Level Gander Center
Wed 02:50:20 PM 51.3167 -49.2667 49° Northeast 590 679 37,000  Level Gander Center
Wed 02:52:00 PM 51.4626 -48.9756 51° Northeast  Level FlightAware Approximate
Wed 02:59:00 PM 52.0479 -47.7086 53° Northeast  Level FlightAware Approximate
Wed 03:00:00 PM 52.1289 -47.5232 55° Northeast  Level FlightAware Approximate
Wed 03:01:00 PM 52.2092 -47.3367 55° Northeast  Level FlightAware Approximate
Wed 03:02:00 PM 52.2893 -47.1495 55° Northeast  Level FlightAware Approximate
Wed 03:03:00 PM 52.3691 -46.9616 55° Northeast  Level FlightAware Approximate
Wed 03:04:00 PM 52.4485 -46.7730 55° Northeast  Level FlightAware Approximate
Wed 03:05:00 PM 52.5277 -46.5838 55° Northeast  Level FlightAware Approximate
Wed 03:06:00 PM 52.6070 -46.3943 55° Northeast  Level FlightAware Approximate
Wed 03:07:00 PM 52.6868 -46.2052 55° Northeast  Level FlightAware Approximate
Wed 03:08:00 PM 52.7664 -46.0154 55° Northeast  Level FlightAware Approximate
Wed 03:09:00 PM 52.8456 -45.8249 55° Northeast  Level FlightAware Approximate
Wed 03:10:00 PM 52.9246 -45.6337 56° Northeast  Level FlightAware Approximate
Wed 03:11:00 PM 53.0033 -45.4418 56° Northeast  Level FlightAware Approximate
Wed 03:12:00 PM 53.0816 -45.2492 56° Northeast  Level FlightAware Approximate
Wed 03:13:00 PM 53.1596 -45.0559 56° Northeast  Level FlightAware Approximate
Wed 03:14:00 PM 53.2373 -44.8619 56° Northeast  Level FlightAware Approximate
Wed 03:15:00 PM 53.3147 -44.6672 56° Northeast  Level FlightAware Approximate
Wed 03:16:00 PM 53.3918 -44.4718 56° Northeast  Level FlightAware Approximate
Wed 03:17:00 PM 53.4686 -44.2757 57° Northeast  Level FlightAware Approximate
Wed 03:18:00 PM 53.5450 -44.0789 57° Northeast  Level FlightAware Approximate
Wed 03:19:00 PM 53.6211 -43.8813 57° Northeast  Level FlightAware Approximate
Wed 03:20:00 PM 53.6969 -43.6831 57° Northeast  Level FlightAware Approximate
Wed 03:21:00 PM 53.7724 -43.4841 57° Northeast  Level FlightAware Approximate
Wed 03:22:00 PM 53.8475 -43.2845 57° Northeast  Level FlightAware Approximate
Wed 03:23:00 PM 53.9223 -43.0841 58° Northeast  Level FlightAware Approximate
Wed 03:24:00 PM 53.9967 -42.8830 58° Northeast  Level FlightAware Approximate
Wed 03:25:00 PM 54.0709 -42.6811 58° Northeast  Level FlightAware Approximate
Wed 03:26:00 PM 54.1446 -42.4786 58° Northeast  Level FlightAware Approximate
Wed 03:27:00 PM 54.2181 -42.2753 58° Northeast  Level FlightAware Approximate
Wed 03:28:00 PM 54.2912 -42.0713 58° Northeast  Level FlightAware Approximate
Wed 03:29:00 PM 54.3639 -41.8666 59° Northeast  Level FlightAware Approximate
Wed 03:30:00 PM 54.4363 -41.6612 59° Northeast  Level FlightAware Approximate
Wed 03:31:00 PM 54.5084 -41.4550 59° Northeast  Level FlightAware Approximate
Wed 03:32:00 PM 54.5801 -41.2481 59° Northeast  Level FlightAware Approximate
Wed 03:33:00 PM 54.6515 -41.0405 59° Northeast  Level FlightAware Approximate
Wed 03:34:00 PM 54.7224 -40.8321 59° Northeast  Level FlightAware Approximate
Wed 03:35:00 PM 54.7931 -40.6231 60° Northeast  Level FlightAware Approximate
Wed 03:36:00 PM 54.8633 -40.4132 60° Northeast  Level FlightAware Approximate
Wed 03:37:00 PM 54.9333 -40.2027 60° Northeast  Level FlightAware Approximate
Wed 03:38:00 PM 55.0031 -39.9917 57° Northeast  Level FlightAware Approximate
Wed 03:39:00 PM 55.0783 -39.7860 57° Northeast  Level FlightAware Approximate
Wed 03:40:00 PM 55.1531 -39.5796 58° Northeast  Level FlightAware Approximate
Wed 03:41:00 PM 55.2276 -39.3723 58° Northeast  Level FlightAware Approximate
Wed 03:42:00 PM 55.3018 -39.1643 58° Northeast  Level FlightAware Approximate
Wed 03:43:00 PM 55.3756 -38.9556 58° Northeast  Level FlightAware Approximate
Wed 03:44:00 PM 55.4490 -38.7460 58° Northeast  Level FlightAware Approximate
Wed 03:45:00 PM 55.5221 -38.5357 58° Northeast  Level FlightAware Approximate
Wed 03:46:00 PM 55.5949 -38.3246 59° Northeast  Level FlightAware Approximate
Wed 03:47:00 PM 55.6672 -38.1127 59° Northeast  Level FlightAware Approximate
Wed 03:48:00 PM 55.7392 -37.9000 59° Northeast  Level FlightAware Approximate
Wed 03:49:00 PM 55.8108 -37.6866 59° Northeast  Level FlightAware Approximate
Wed 03:50:00 PM 55.8821 -37.4723 59° Northeast  Level FlightAware Approximate
Wed 03:51:00 PM 55.9530 -37.2573 59° Northeast  Level FlightAware Approximate
Wed 03:52:00 PM 56.0235 -37.0415 60° Northeast  Level FlightAware Approximate
Wed 03:53:00 PM 56.0936 -36.8248 60° Northeast  Level FlightAware Approximate
Wed 03:54:00 PM 56.1634 -36.6074 60° Northeast  Level FlightAware Approximate
Wed 03:55:00 PM 56.2327 -36.3893 60° Northeast  Level FlightAware Approximate
Wed 03:56:00 PM 56.3017 -36.1703 60° Northeast  Level FlightAware Approximate
Wed 03:57:00 PM 56.3703 -35.9505 61° Northeast  Level FlightAware Approximate
Wed 03:58:00 PM 56.4385 -35.7300 61° Northeast  Level FlightAware Approximate
Wed 03:59:00 PM 56.5063 -35.5086 61° Northeast  Level FlightAware Approximate
Wed 04:00:00 PM 56.5737 -35.2865 61° Northeast  Level FlightAware Approximate
Wed 04:01:00 PM 56.6407 -35.0636 61° Northeast  Level FlightAware Approximate
Wed 04:02:00 PM 56.7074 -34.8399 61° Northeast  Level FlightAware Approximate
Wed 04:03:00 PM 56.7736 -34.6153 62° Northeast  Level FlightAware Approximate
Wed 04:04:00 PM 56.8394 -34.3900 62° Northeast  Level FlightAware Approximate
Wed 04:05:00 PM 56.9048 -34.1640 62° Northeast  Level FlightAware Approximate
Wed 04:06:00 PM 56.9698 -33.9371 62° Northeast  Level FlightAware Approximate
Wed 04:07:00 PM 57.0344 -33.7094 62° Northeast  Level FlightAware Approximate
Wed 04:08:00 PM 57.0985 -33.4809 63° Northeast  Level FlightAware Approximate
Wed 04:09:00 PM 57.1623 -33.2517 63° Northeast  Level FlightAware Approximate
Wed 04:10:00 PM 57.2256 -33.0217 63° Northeast  Level FlightAware Approximate
Wed 04:11:00 PM 57.2885 -32.7908 63° Northeast  Level FlightAware Approximate
Wed 04:12:00 PM 57.3510 -32.5592 63° Northeast  Level FlightAware Approximate
Wed 04:13:00 PM 57.4131 -32.3268 64° Northeast  Level FlightAware Approximate
Wed 04:14:00 PM 57.4747 -32.0936 64° Northeast  Level FlightAware Approximate
Wed 04:15:00 PM 57.5359 -31.8596 64° Northeast  Level FlightAware Approximate
Wed 04:16:00 PM 57.5966 -31.6249 64° Northeast  Level FlightAware Approximate
Wed 04:17:00 PM 57.6570 -31.3893 64° Northeast  Level FlightAware Approximate
Wed 04:18:00 PM 57.7169 -31.1530 65° Northeast  Level FlightAware Approximate
Wed 04:19:00 PM 57.7763 -30.9160 65° Northeast  Level FlightAware Approximate
Wed 04:20:00 PM 57.8353 -30.6783 65° Northeast  Level FlightAware Approximate
Wed 04:21:00 PM 57.8938 -30.4397 65° Northeast  Level FlightAware Approximate
Wed 04:22:00 PM 57.9519 -30.2004 65° Northeast  Level FlightAware Approximate
Wed 04:23:00 PM 58.0058 -29.9578 75° East  Level FlightAware Approximate
Wed 04:24:00 PM 58.0405 -29.7023 76° East  Level FlightAware Approximate
Wed 04:25:00 PM 58.0747 -29.4462 76° East  Level FlightAware Approximate
Wed 04:26:00 PM 58.1083 -29.1896 76° East  Level FlightAware Approximate
Wed 04:27:00 PM 58.1415 -28.9325 76° East  Level FlightAware Approximate
Wed 04:28:00 PM 58.1741 -28.6750 76° East  Level FlightAware Approximate
Wed 04:29:00 PM 58.2062 -28.4170 77° East  Level FlightAware Approximate
Wed 04:30:00 PM 58.2378 -28.1585 77° East  Level FlightAware Approximate
Wed 04:31:00 PM 58.2689 -27.8996 77° East  Level FlightAware Approximate
Wed 04:32:00 PM 58.2995 -27.6402 77° East  Level FlightAware Approximate
Wed 04:33:00 PM 58.3295 -27.3804 77° East  Level FlightAware Approximate
Wed 04:34:00 PM 58.3594 -27.1203 77° East  Level FlightAware Approximate
Wed 04:35:00 PM 58.3896 -26.8601 77° East  Level FlightAware Approximate
Wed 04:36:00 PM 58.4192 -26.5995 78° East  Level FlightAware Approximate
Wed 04:37:00 PM 58.4484 -26.3384 78° East  Level FlightAware Approximate
Wed 04:38:00 PM 58.4770 -26.0770 78° East  Level FlightAware Approximate
Wed 04:39:00 PM 58.5051 -25.8151 78° East  Level FlightAware Approximate
Wed 04:40:00 PM 58.5326 -25.5527 79° East  Level FlightAware Approximate
Wed 04:41:00 PM 58.5596 -25.2900 79° East  Level FlightAware Approximate
Wed 04:42:00 PM 58.5861 -25.0268 79° East  Level FlightAware Approximate
Wed 04:43:00 PM 58.6120 -24.7633 79° East  Level FlightAware Approximate
Wed 04:44:00 PM 58.6374 -24.4994 79° East  Level FlightAware Approximate
Wed 04:45:00 PM 58.6622 -24.2351 80° East  Level FlightAware Approximate
Wed 04:46:00 PM 58.6865 -23.9704 80° East  Level FlightAware Approximate
Wed 04:47:00 PM 58.7103 -23.7054 80° East  Level FlightAware Approximate
Wed 04:48:00 PM 58.7344 -23.4403 80° East  Level FlightAware Approximate
Wed 04:49:00 PM 58.7583 -23.1749 80° East  Level FlightAware Approximate
Wed 04:50:00 PM 58.7817 -22.9092 80° East  Level FlightAware Approximate
Wed 04:51:00 PM 58.8045 -22.6431 80° East  Level FlightAware Approximate
Wed 04:52:00 PM 58.8267 -22.3767 81° East  Level FlightAware Approximate
Wed 04:53:00 PM 58.8485 -22.1100 81° East  Level FlightAware Approximate
Wed 04:54:00 PM 58.8696 -21.8429 81° East  Level FlightAware Approximate
Wed 04:55:00 PM 58.8902 -21.5755 81° East  Level FlightAware Approximate
Wed 04:56:00 PM 58.9103 -21.3077 82° East  Level FlightAware Approximate
Wed 04:57:00 PM 58.9298 -21.0397 82° East  Level FlightAware Approximate
Wed 04:58:00 PM 58.9487 -20.7714 82° East  Level FlightAware Approximate
Wed 04:59:00 PM 58.9671 -20.5028 82° East  Level FlightAware Approximate
Wed 05:00:00 PM 58.9850 -20.2339 83° East  Level FlightAware Approximate
Wed 05:01:00 PM 59.0061 -19.9665 70° East  Level FlightAware Approximate
Wed 05:02:00 PM 59.0527 -19.7105 70° East  Level FlightAware Approximate
Wed 05:03:00 PM 59.0988 -19.4538 71° East  Level FlightAware Approximate
Wed 05:04:00 PM 59.1444 -19.1964 71° East  Level FlightAware Approximate
Wed 05:05:00 PM 59.1894 -18.9383 71° East  Level FlightAware Approximate
Wed 05:06:00 PM 59.2340 -18.6796 71° East  Level FlightAware Approximate
Wed 05:07:00 PM 59.2780 -18.4202 72° East  Level FlightAware Approximate
Wed 05:08:00 PM 59.3215 -18.1601 72° East  Level FlightAware Approximate
Wed 05:09:00 PM 59.3645 -17.8993 72° East  Level FlightAware Approximate
Wed 05:10:00 PM 59.4070 -17.6379 72° East  Level FlightAware Approximate
Wed 05:11:00 PM 59.4489 -17.3758 72° East  Level FlightAware Approximate
Wed 05:12:00 PM 59.4903 -17.1131 73° East  Level FlightAware Approximate
Wed 05:13:00 PM 59.5312 -16.8498 73° East  Level FlightAware Approximate
Wed 05:14:00 PM 59.5716 -16.5858 73° East  Level FlightAware Approximate
Wed 05:15:00 PM 59.6114 -16.3212 73° East  Level FlightAware Approximate
Wed 05:16:00 PM 59.6507 -16.0560 74° East  Level FlightAware Approximate
Wed 05:17:00 PM 59.6895 -15.7901 74° East  Level FlightAware Approximate
Wed 05:18:00 PM 59.7277 -15.5236 74° East  Level FlightAware Approximate
Wed 05:19:00 PM 59.7654 -15.2566 74° East  Level FlightAware Approximate
Wed 05:20:00 PM 59.8025 -14.9889 74° East  Level FlightAware Approximate
Wed 05:21:00 PM 59.8391 -14.7206 75° East  Level FlightAware Approximate
Wed 05:22:00 PM 59.8752 -14.4518 75° East  Level FlightAware Approximate
Wed 05:23:00 PM 59.9107 -14.1824 75° East  Level FlightAware Approximate
Wed 05:24:00 PM 59.9456 -13.9123 75° East  Level FlightAware Approximate
Wed 05:25:00 PM 59.9800 -13.6418 76° East  Level FlightAware Approximate
Wed 05:26:00 PM 60.0139 -13.3707 76° East  Level FlightAware Approximate
Wed 05:27:00 PM 60.0471 -13.0990 76° East  Level FlightAware Approximate
Wed 05:28:00 PM 60.0799 -12.8268 76° East  Level FlightAware Approximate
Wed 05:29:00 PM 60.1120 -12.5540 77° East  Level FlightAware Approximate
Wed 05:30:00 PM 60.1436 -12.2807 77° East  Level FlightAware Approximate
Wed 05:31:00 PM 60.1747 -12.0069 77° East  Level FlightAware Approximate
Wed 05:32:00 PM 60.2051 -11.7326 77° East  Level FlightAware Approximate
Wed 05:33:00 PM 60.2350 -11.4578 78° East  Level FlightAware Approximate
Wed 05:34:00 PM 60.2644 -11.1825 78° East  Level FlightAware Approximate
Wed 05:35:00 PM 60.2931 -10.9066 78° East  Level FlightAware Approximate
Wed 05:36:00 PM 60.3213 -10.6304 78° East  Level FlightAware Approximate
Wed 05:37:00 PM 60.3489 -10.3536 78° East  Level FlightAware Approximate
Wed 05:38:00 PM 60.3760 -10.0764 79° East  Level FlightAware Approximate
Wed 05:38:35 PM 60.0686 -7.5066 79° East 514 592 37,000  Level FlightAware UK
Wed 05:39:05 PM 60.0714 -7.3639 88° East 514 592 37,000  Level FlightAware UK
Wed 05:39:35 PM 60.0736 -7.2216 88° East 512 589 37,000  Level FlightAware UK
Wed 05:40:05 PM 60.0756 -7.0794 88° East 512 589 37,000  Level FlightAware UK
Wed 05:40:35 PM 60.0776 -6.9376 88° East 512 589 37,000  Level FlightAware UK
Wed 05:41:05 PM 60.0796 -6.7948 88° East 514 592 37,000  Level FlightAware UK
Wed 05:41:35 PM 60.0815 -6.6528 88° East 514 592 37,000  Level FlightAware UK
Wed 05:42:05 PM 60.0832 -6.5107 89° East 514 592 37,000  Level FlightAware UK
Wed 05:42:35 PM 60.0846 -6.3681 89° East 516 594 37,000  Level FlightAware UK
Wed 05:43:05 PM 60.0859 -6.2251 89° East 516 594 37,000  Level FlightAware UK
Wed 05:43:35 PM 60.0873 -6.0818 89° East 518 596 37,000  Level FlightAware UK
Wed 05:44:05 PM 60.0883 -5.9382 89° East 518 596 37,000  Level FlightAware UK
Wed 05:44:35 PM 60.0891 -5.7945 89° East 518 596 37,000  Level FlightAware UK
Wed 05:45:05 PM 60.0896 -5.6509 89° East 518 596 37,000  Level FlightAware UK
Wed 05:45:35 PM 60.0901 -5.5075 90° East 518 596 37,000  Level FlightAware UK
Wed 05:46:05 PM 60.0906 -5.3641 90° East 518 596 37,000  Level FlightAware UK
Wed 05:46:35 PM 60.0908 -5.2207 90° East 518 596 37,000  Level FlightAware UK
Wed 05:47:05 PM 60.0906 -5.0763 90° East 516 594 37,000  Level FlightAware UK
Wed 05:47:35 PM 60.0906 -4.9332 90° East 514 592 37,000  Level FlightAware UK
Wed 05:48:05 PM 60.0903 -4.7907 90° East 514 592 37,000  Level FlightAware UK
Wed 05:48:35 PM 60.0901 -4.6483 90° East 514 592 37,000  Level FlightAware UK
Wed 05:49:05 PM 60.0894 -4.5061 90° East 514 592 37,000  Level FlightAware UK
Wed 05:49:35 PM 60.0886 -4.3630 91° East 514 592 37,000  Level FlightAware UK
Wed 05:50:05 PM 60.0876 -4.2204 91° East 516 594 37,000  Level FlightAware UK
Wed 05:50:35 PM 60.0866 -4.0774 91° East 516 594 37,000  Level FlightAware UK
Wed 05:51:06 PM 60.0856 -3.9332 91° East 514 592 37,000  Level FlightAware UK
Wed 05:51:41 PM 60.0839 -3.7628 91° East 514 592 37,000  Level FlightAware UK
Wed 05:52:08 PM 60.0827 -3.6389 91° East 514 592 37,000  Level FlightAware ADS-B
Wed 05:52:42 PM 60.0804 -3.4764 91° East 514 592 37,000  Level FlightAware UK
Wed 05:53:15 PM 60.0787 -3.3186 91° East 516 594 37,000  Level FlightAware ADS-B
Wed 05:54:15 PM 60.0748 -3.0373 92° East 517 595 37,000  Level FlightAware ADS-B
Wed 05:54:48 PM 60.0719 -2.8760 92° East 516 594 37,000  Level FlightAware UK
Wed 05:55:23 PM 60.0692 -2.7107 92° East 515 593 37,000  Level FlightAware ADS-B
Wed 05:56:21 PM 60.0639 -2.4340 92° East 511 588 37,000  Level FlightAware ADS-B
Wed 05:57:18 PM 60.0578 -2.1650 92° East 508 585 37,000  Level FlightAware UK
Wed 05:57:25 PM 60.0575 -2.1333 92° East 509 586 37,000  Level FlightAware ADS-B
Wed 05:58:18 PM 60.0517 -1.8834 92° East 512 589 37,000  Level FlightAware UK
Wed 05:58:30 PM 60.0504 -1.8281 92° East 512 589 37,000  Level FlightAware ADS-B
Wed 05:59:08 PM 60.0458 -1.6474 92° East 514 592 37,000  Level FlightAware ADS-B (EGPD / ABZ)
Wed 05:59:48 PM 60.0407 -1.4600 92° East 517 595 37,000  Level FlightAware ADS-B (EGPD / ABZ)
Wed 06:00:19 PM 60.0413 -1.3118 92° East 520 598 37,000  Level FlightAware UK
Wed 06:00:34 PM 60.0463 -1.2381 82° East 522 601 37,000  Level FlightAware ADS-B
Wed 06:00:49 PM 60.0507 -1.1695 82° East 522 601 37,000  Level FlightAware UK
Wed 06:01:19 PM 60.0594 -1.0262 82° East 522 601 37,000  Level FlightAware UK
Wed 06:01:42 PM 60.0659 -0.9137 84° East 521 600 37,000  Level FlightAware ADS-B
Wed 06:02:19 PM 60.0762 -0.7364 84° East 520 598 37,000  Level FlightAware UK
Wed 06:02:47 PM 60.0839 -0.6071 84° East 520 598 37,000  Level FlightAware ADS-B
Wed 06:03:19 PM 60.0927 -0.4490 84° East 520 598 37,000  Level FlightAware UK
Wed 06:03:49 PM 60.1007 -0.3069 85° East 518 596 37,000  Level FlightAware ADS-B
Wed 06:04:25 PM 60.1100 -0.1338 85° East 518 596 37,000  Level FlightAware UK
Wed 06:04:44 PM 60.1149 -0.0461 85° East 517 595 37,000  Level FlightAware ADS-B
Wed 06:05:31 PM 60.1268 0.1798 85° East 516 594 37,000  Level FlightAware UK
Wed 06:05:58 PM 60.1330 0.3045 84° East 517 595 37,000  Level FlightAware ADS-B
Wed 06:06:32 PM 60.1409 0.4665 84° East 514 592 37,000  Level FlightAware UK
Wed 06:07:03 PM 60.1480 0.6121 85° East 515 593 37,000  Level FlightAware ADS-B
Wed 06:07:36 PM 60.1555 0.7696 85° East 513 590 37,000  Level FlightAware ADS-B
Wed 06:08:02 PM 60.1613 0.8936 85° East 512 589 37,000  Level FlightAware UK
Wed 06:08:32 PM 60.1675 1.0352 85° East 512 589 37,000  Level FlightAware UK
Wed 06:08:48 PM 60.1707 1.1064 86° East 510 587 37,000  Level FlightAware ADS-B
Wed 06:09:02 PM 60.1737 1.1775 85° East 510 587 37,000  Level FlightAware UK
Wed 06:09:32 PM 60.1798 1.3187 86° East 510 587 37,000  Level FlightAware UK
Wed 06:10:02 PM 60.1861 1.4606 85° East 510 587 37,000  Level FlightAware UK
Wed 06:10:32 PM 60.1917 1.6018 85° East 508 585 37,000  Level FlightAware UK
Wed 06:11:02 PM 60.1971 1.7428 85° East 508 585 37,000  Level FlightAware UK
Wed 07:03:07 PM 59.7135 15.9046 105° East 477 549 37,000  Level FlightAware ADS-B
Wed 07:03:44 PM 59.6919 16.0610 105° East 480 552 37,000  Level FlightAware ADS-B
Wed 07:04:25 PM 59.6678 16.2336 106° East 484 557 37,000  Level FlightAware ADS-B
Wed 07:05:07 PM 59.6424 16.4130 106° East 484 557 37,000  Level FlightAware ADS-B
Wed 07:05:47 PM 59.6185 16.5794 106° East 479 551 37,000  Level FlightAware ADS-B
Wed 07:06:27 PM 59.5945 16.7457 106° East 475 547 37,000  Level FlightAware ADS-B
Wed 07:07:07 PM 59.5704 16.9102 106° East 471 542 37,000  Level FlightAware ADS-B
Wed 07:07:47 PM 59.5462 17.0750 106° East 471 542 37,000  Level FlightAware ADS-B
Wed 07:08:28 PM 59.5218 17.2393 106° East 470 541 37,000  Level FlightAware ADS-B
Wed 07:09:07 PM 59.4995 17.3868 107° East 471 542 37,000  Level FlightAware ADS-B
Wed 07:09:47 PM 59.4723 17.5664 107° East 471 542 37,000  Level FlightAware ADS-B
Wed 07:10:28 PM 59.4466 17.7339 107° East 470 541 37,000  Level FlightAware ADS-B
Wed 07:11:09 PM 59.4213 17.8977 107° East 469 540 37,000  Level FlightAware ADS-B
Wed 07:11:49 PM 59.3949 18.0664 107° East 469 540 37,000  Level FlightAware ADS-B
Wed 07:12:29 PM 59.3696 18.2266 107° East 467 537 37,000  Level FlightAware ADS-B
Wed 07:13:09 PM 59.3438 18.3882 107° East 468 539 37,000  Level FlightAware ADS-B
Wed 07:13:49 PM 59.3178 18.5498 108° East 469 540 37,000  Level FlightAware ADS-B
Wed 07:14:29 PM 59.2930 18.7028 108° East 473 544 37,000  Level FlightAware ADS-B
Wed 07:15:09 PM 59.2648 18.8742 108° East 473 544 37,000  Level FlightAware ADS-B
Wed 07:15:49 PM 59.2392 19.0304 108° East 474 545 37,000  Level FlightAware ADS-B
Wed 07:16:29 PM 59.2111 19.1988 108° East 474 545 37,000  Level FlightAware ADS-B
Wed 07:17:09 PM 59.1839 19.3594 108° East 474 545 37,000  Level FlightAware ADS-B
Wed 07:17:50 PM 59.1562 19.5223 108° East 474 545 37,000  Level FlightAware ADS-B
Wed 07:18:31 PM 59.1300 19.6752 109° East 470 541 37,000  Level FlightAware ADS-B
Wed 07:19:10 PM 59.1017 19.8397 109° East 470 541 37,000  Level FlightAware ADS-B
Wed 07:19:50 PM 59.0737 20.0008 109° East 470 541 37,000  Level FlightAware ADS-B
Wed 07:20:20 PM 59.0522 20.1230 109° East 471 542 37,000  Level FlightAware ADS-B
Wed 07:20:50 PM 59.0318 20.2378 109° East 470 541 37,000  Level FlightAware ADS-B
Wed 07:21:30 PM 59.0033 20.3978 109° East 470 541 37,000  Level FlightAware ADS-B
Wed 07:22:08 PM 58.9754 20.5531 109° East 469 540 37,000  Level FlightAware ADS-B
Wed 07:22:50 PM 58.9456 20.7175 109° East 470 541 37,000  Level FlightAware ADS-B
Wed 07:23:27 PM 58.9187 20.8654 110° East 468 539 37,000  Level FlightAware ADS-B
Wed 07:24:04 PM 58.9031 20.9566 103° East 468 539 37,000  Level FlightAware ADS-B
Wed 07:26:37 PM 58.8444 21.4239 104° East 464 534 37,000  Level FlightAware ADS-B
Wed 07:27:20 PM 58.8480 21.3955 104° East 466 536 37,000  Level FlightAware ADS-B
Wed 07:28:58 PM 58.7454 22.1857 104° East 462 532 37,000  Level FlightAware ADS-B
Wed 07:29:00 PM 58.8006 21.8360 102° East  Level Estimated
Wed 07:29:30 PM 58.7279 22.3165 105° East 462 532 37,000  Level FlightAware ADS-B
Wed 07:30:09 PM 58.7072 22.4694 105° East 462 532 37,000  Level FlightAware ADS-B
Wed 07:30:39 PM 58.6904 22.5927 105° East 461 531 37,000  Level FlightAware ADS-B
Wed 07:31:09 PM 58.6746 22.7083 105° East 462 532 37,000  Level FlightAware ADS-B
Wed 07:31:39 PM 58.6581 22.8265 105° East 463 533 37,000  Level FlightAware ADS-B
Wed 07:32:10 PM 58.6411 22.9488 105° East 463 533 37,000  Level FlightAware ADS-B
Wed 07:33:40 PM 58.5933 23.2855 105° East 463 533 37,000  Level FlightAware ADS-B
Wed 07:34:18 PM 58.5691 23.4536 106° East 464 534 37,000  Level FlightAware ADS-B
Wed 07:35:07 PM 58.5432 23.6327 106° East 463 533 37,000  Level FlightAware ADS-B
Wed 07:35:47 PM 58.5181 23.8033 106° East 460 529 37,000  Level FlightAware ADS-B
Wed 07:36:31 PM 58.4939 23.9666 106° East 461 531 37,000  Level FlightAware ADS-B
Wed 07:37:26 PM 58.4611 24.1844 106° East 460 529 37,000  Level FlightAware ADS-B
Wed 07:38:47 PM 58.4140 24.4930 106° East 464 534 37,000  Level FlightAware ADS-B
Wed 07:39:29 PM 58.3835 24.6684 109° East 466 536 37,000  Level FlightAware ADS-B
Wed 07:39:59 PM 58.3623 24.7847 109° East 467 537 37,000  Level FlightAware ADS-B
Wed 07:40:32 PM 58.3416 24.8996 109° East 467 537 37,000  Level FlightAware ADS-B
Wed 07:41:10 PM 58.3130 25.0582 109° East 467 537 37,000  Level FlightAware ADS-B
Wed 07:41:47 PM 58.2865 25.2037 109° East 466 536 37,000  Level FlightAware ADS-B
Wed 07:42:47 PM 58.2445 25.4323 109° East 468 539 37,000  Level FlightAware ADS-B
Wed 07:43:46 PM 58.2017 25.6639 110° East 469 540 37,000  Level FlightAware ADS-B
Wed 07:44:46 PM 58.1582 25.8958 110° East 468 539 37,000  Level FlightAware ADS-B
Wed 07:45:47 PM 58.1145 26.1263 110° East 466 536 37,000  Level FlightAware ADS-B
Wed 07:46:47 PM 58.0713 26.3495 110° East 465 535 37,000  Level FlightAware ADS-B
Wed 07:47:47 PM 58.0272 26.5765 110° East 466 536 37,000  Level FlightAware ADS-B
Wed 07:48:47 PM 57.9817 26.8081 111° Southeast 466 536 37,000  Level FlightAware ADS-B
Wed 07:49:47 PM 57.9366 27.0341 111° Southeast 465 535 37,000  Level FlightAware ADS-B
Wed 07:50:47 PM 57.8902 27.2643 111° Southeast 467 537 37,000  Level FlightAware ADS-B
Wed 07:51:47 PM 57.8436 27.4898 114° Southeast 467 537 37,000  Level FlightAware ADS-B
Wed 07:52:47 PM 57.7799 27.7009 120° Southeast 471 542 37,000  Level FlightAware ADS-B
Wed 07:53:46 PM 57.7159 27.9000 122° Southeast 472 543 37,000  Level FlightAware ADS-B
Wed 07:54:47 PM 57.6431 28.1170 122° Southeast 471 542 37,000  Level FlightAware ADS-B
Wed 07:55:47 PM 57.5732 28.3240 122° Southeast 474 545 37,000  Level FlightAware ADS-B
Wed 07:56:47 PM 57.5035 28.5281 123° Southeast 475 547 37,000  Level FlightAware ADS-B
Wed 07:57:47 PM 57.4334 28.7316 123° Southeast 476 548 37,000  Level FlightAware ADS-B
Wed 07:58:47 PM 57.3621 28.9369 123° Southeast 474 545 37,000  Level FlightAware ADS-B
Wed 07:59:46 PM 57.2918 29.1379 123° Southeast 476 548 37,000  Level FlightAware ADS-B
Wed 08:00:47 PM 57.2184 29.3459 123° Southeast 477 549 37,000  Level FlightAware ADS-B
Wed 08:01:47 PM 57.1462 29.5497 123° Southeast 477 549 37,000  Level FlightAware ADS-B
Wed 08:02:47 PM 57.0722 29.7553 124° Southeast 480 552 37,000  Level FlightAware ADS-B
Wed 08:03:47 PM 56.9993 29.9571 124° Southeast 480 552 37,000  Level FlightAware ADS-B
Wed 08:04:47 PM 56.9265 30.1567 124° Southeast 482 555 37,000  Level FlightAware ADS-B
Wed 08:05:46 PM 56.8521 30.3595 124° Southeast 483 556 37,000  Level FlightAware ADS-B
Wed 08:06:46 PM 56.7803 30.5528 124° Southeast 485 558 37,000  Level FlightAware ADS-B
Wed 08:07:47 PM 56.6969 30.7623 132° Southeast 486 559 37,000  Level FlightAware ADS-B
Wed 08:08:47 PM 56.6121 30.9479 129° Southeast 488 562 37,000  Level FlightAware ADS-B
Wed 08:09:41 PM 56.5355 31.1222 126° Southeast 486 559 37,000  Level FlightAware ADS-B
Wed 08:10:30 PM 56.5078 31.1983 122° Southeast 478 550 37,000  Level FlightAware ADS-B
Wed 08:11:10 PM 56.4297 31.4233 123° Southeast 480 552 37,000  Level FlightAware ADS-B
Wed 08:11:51 PM 56.3812 31.5588 123° Southeast 482 555 37,000  Level FlightAware ADS-B
Wed 08:12:27 PM 56.3374 31.6805 123° Southeast 481 554 37,000  Level FlightAware ADS-B
Wed 08:13:10 PM 56.2844 31.8270 123° Southeast 483 556 37,000  Level FlightAware ADS-B
Wed 08:13:47 PM 56.2401 31.9485 123° Southeast 483 556 37,000  Level FlightAware ADS-B
Wed 08:14:46 PM 56.1673 32.1472 123° Southeast 485 558 37,000  Level FlightAware ADS-B
Wed 08:17:00 PM 56.1573 32.7073 92° East  Level Estimated
Wed 08:18:00 PM 56.1520 32.9580 92° East  Level Estimated
Wed 08:19:00 PM 56.1462 33.2087 92° East  Level Estimated
Wed 08:20:00 PM 56.1399 33.4592 92° East  Level Estimated
Wed 08:21:00 PM 56.1331 33.7097 93° East  Level Estimated
Wed 08:22:00 PM 56.1258 33.9601 93° East  Level Estimated
Wed 08:23:00 PM 56.1180 34.2104 93° East  Level Estimated
Wed 08:24:00 PM 56.1096 34.4605 93° East  Level Estimated
Wed 08:25:00 PM 56.1008 34.7106 94° East  Level Estimated
Wed 08:26:00 PM 56.0915 34.9605 94° East  Level Estimated
Wed 08:27:00 PM 56.0816 35.2104 94° East  Level Estimated
Wed 08:28:00 PM 56.0713 35.4601 94° East  Level Estimated
Wed 08:29:00 PM 56.0605 35.7096 94° East  Level Estimated
Wed 08:30:00 PM 56.0491 35.9590 95° East  Level Estimated
Wed 08:31:00 PM 56.0372 36.2083 95° East  Level Estimated
Wed 08:32:00 PM 56.0249 36.4574 95° East  Level Estimated
Wed 08:33:00 PM 56.0120 36.7063 95° East  Level Estimated
Wed 08:34:00 PM 55.9987 36.9551 95° East  Level Estimated
Wed 08:35:00 PM 55.9848 37.2037 96° East  Level Estimated
Wed 08:36:00 PM 55.9726 37.4146 114° Southeast  Level Estimated
Wed 08:37:00 PM 55.9726 37.4146 114° Southeast  Level Estimated
Wed 08:38:00 PM 55.9726 37.4146 114° Southeast  Level Estimated
Wed 08:39:00 PM 55.9726 37.4146 114° Southeast  Level Estimated
Wed 08:40:00 PM 55.9726 37.4146 114° Southeast  Level Estimated
Wed 08:41:00 PM 55.9726 37.4146 114° Southeast  Level Estimated
Wed 08:42:00 PM 55.9726 37.4146 114° Southeast  Level Estimated
Wed 08:43:00 PM 55.9726 37.4146 114° Southeast  Level Estimated
Wed 08:44:00 PM 55.9726 37.4146 114° Southeast  Level Estimated
Wed 08:45:00 PM 55.9726 37.4146 114° Southeast  Level Estimated
Wed 08:46:00 PM 55.9726 37.4146 114° Southeast  Level Estimated
Wed 08:47:00 PM 55.9726 37.4146 114° Southeast  Level Estimated
Wed 08:48:00 PM 55.9726 37.4146 114° Southeast  Level Estimated
Wed 08:49:00 PM 55.9726 37.4146 114° Southeast  Level Estimated
Wed 08:50:00 PM 55.9726 37.4146 114° Southeast  Level Estimated
Wed 08:51:00 PM 55.9726 37.4146 114° Southeast  Level Estimated
Wed 08:52:00 PM 55.9726 37.4146 114° Southeast  Level Estimated
Wed 08:53:00 PM 55.9726 37.4146 114° Southeast  Level Estimated
Wed 08:54:00 PM 55.9726 37.4146 114° Southeast  Level Estimated
Wed 08:55:00 PM 55.9726 37.4146 114° Southeast  Level Estimated

Login

Don't have an account? Register now (free) for customized features, flight alerts, and more!